Time;durP1;ratioP1;P1;durP2;ratioP2;P2;SDS_P1;SDS_P2;PMS_P1;PMS_P2;Temp;Humidity;BMP_temperature;BMP_pressure;BME280_temperature;BME280_humidity;BME280_pressure;Samples;Min_cycle;Max_cycle;Signal;HPM_P1;HPM_P2
2022/01/04 00:01:48;;;;;;;20.50;11.35;;;;;;;;;;4995550;28;20036;-39
2022/01/04 00:04:14;;;;;;;20.80;11.75;;;;;;;;;;4993776;28;20053;-37
2022/01/04 00:06:39;;;;;;;17.05;11.07;;;;;;;;;;4995710;28;20034;-37
2022/01/04 00:09:06;;;;;;;17.40;10.82;;;;;;;;;;4995674;28;20121;-39
2022/01/04 00:11:45;;;;;;;22.48;11.93;;;;;;;;;;4995316;28;20027;-40
2022/01/04 00:14:11;;;;;;;21.50;11.43;;;;;;;;;;4994629;28;20033;-39
2022/01/04 00:16:37;;;;;;;18.60;10.23;;;;;;;;;;4995491;28;20394;-40
2022/01/04 00:19:02;;;;;;;18.83;11.32;;;;;;;;;;4995542;28;20030;-40
2022/01/04 00:21:28;;;;;;;20.45;11.35;;;;;;;;;;4995264;28;20045;-38
2022/01/04 00:23:53;;;;;;;21.08;11.77;;;;;;;;;;4995358;28;20035;-40
2022/01/04 00:26:19;;;;;;;20.05;10.90;;;;;;;;;;4995428;28;20030;-39
2022/01/04 00:28:44;;;;;;;18.98;10.93;;;;;;;;;;4993896;28;20050;-40
2022/01/04 00:31:09;;;;;;;18.15;10.75;;;;;;;;;;4995032;28;20040;-39
2022/01/04 00:33:36;;;;;;;17.23;10.30;;;;;;;;;;4995019;28;20037;-40
2022/01/04 00:36:03;;;;;;;18.33;11.32;;;;;;;;;;4994884;28;20029;-38
2022/01/04 00:38:29;;;;;;;21.60;11.63;;;;;;;;;;4995211;28;20041;-39
2022/01/04 00:40:55;;;;;;;20.77;11.70;;;;;;;;;;4995102;28;20023;-39
2022/01/04 00:43:20;;;;;;;23.40;11.63;;;;;;;;;;4994864;28;20034;-39
2022/01/04 00:45:46;;;;;;;17.13;10.20;;;;;;;;;;4995040;28;20038;-39
2022/01/04 00:50:39;;;;;;;15.85;9.20;;;;;;;;;;4994987;28;20030;-39
2022/01/04 00:53:06;;;;;;;20.60;11.27;;;;;;;;;;4994607;28;20085;-40
2022/01/04 00:55:32;;;;;;;21.20;12.40;;;;;;;;;;4994473;28;20466;-39
2022/01/04 00:57:58;;;;;;;20.05;11.98;;;;;;;;;;4994517;28;20041;-39
2022/01/04 01:00:24;;;;;;;21.77;12.05;;;;;;;;;;4994517;28;20030;-39
2022/01/04 01:02:50;;;;;;;20.17;12.05;;;;;;;;;;4993471;28;20473;-40
2022/01/04 01:05:17;;;;;;;23.23;12.55;;;;;;;;;;4994089;28;20402;-39
2022/01/04 01:07:43;;;;;;;21.23;12.27;;;;;;;;;;4994476;28;20033;-39
2022/01/04 01:12:37;;;;;;;19.48;12.23;;;;;;;;;;4994273;28;20038;-39
2022/01/04 01:15:05;;;;;;;21.63;13.25;;;;;;;;;;4994198;28;20022;-39
2022/01/04 01:17:30;;;;;;;24.52;13.23;;;;;;;;;;4994363;28;20381;-39
2022/01/04 01:19:57;;;;;;;24.13;12.98;;;;;;;;;;4994472;28;20105;-39
2022/01/04 01:22:23;;;;;;;21.70;12.85;;;;;;;;;;4994429;28;20157;-38
2022/01/04 01:24:49;;;;;;;19.08;12.23;;;;;;;;;;4994337;28;20042;-38
2022/01/04 01:27:14;;;;;;;23.90;12.70;;;;;;;;;;4993961;28;20026;-39
2022/01/04 01:29:40;;;;;;;22.23;11.60;;;;;;;;;;4993904;28;20034;-39
2022/01/04 01:32:06;;;;;;;23.92;13.32;;;;;;;;;;4994238;28;20026;-39
2022/01/04 01:34:31;;;;;;;23.45;13.38;;;;;;;;;;4994170;28;20026;-39
2022/01/04 01:36:57;;;;;;;25.42;14.38;;;;;;;;;;4994072;28;20458;-40
2022/01/04 01:39:22;;;;;;;27.10;14.70;;;;;;;;;;4994154;28;20030;-39
2022/01/04 01:41:48;;;;;;;27.45;14.15;;;;;;;;;;4994041;28;20081;-39
2022/01/04 01:44:13;;;;;;;27.45;15.20;;;;;;;;;;4994034;28;20034;-39
2022/01/04 01:46:39;;;;;;;27.55;13.80;;;;;;;;;;4993727;28;20106;-38
2022/01/04 01:49:05;;;;;;;22.23;12.65;;;;;;;;;;4993689;28;20027;-38
2022/01/04 01:51:31;;;;;;;28.58;15.70;;;;;;;;;;4993876;28;20510;-39
2022/01/04 01:53:57;;;;;;;25.13;14.00;;;;;;;;;;4993491;28;20518;-38
2022/01/04 01:56:23;;;;;;;26.27;14.93;;;;;;;;;;4993764;28;20073;-39
2022/01/04 01:58:49;;;;;;;21.95;13.80;;;;;;;;;;4993491;28;20050;-38
2022/01/04 02:01:15;;;;;;;28.25;14.75;;;;;;;;;;4993451;28;20042;-40
2022/01/04 02:03:40;;;;;;;29.75;15.27;;;;;;;;;;4993664;28;20087;-39
2022/01/04 02:06:06;;;;;;;25.48;13.77;;;;;;;;;;4993734;28;20030;-39
2022/01/04 02:08:32;;;;;;;20.13;13.48;;;;;;;;;;4993331;28;20030;-39
2022/01/04 02:10:58;;;;;;;26.30;13.57;;;;;;;;;;4993346;28;20026;-38
2022/01/04 02:13:25;;;;;;;25.77;14.57;;;;;;;;;;4993368;28;20062;-39
2022/01/04 02:15:52;;;;;;;28.08;15.10;;;;;;;;;;4993520;28;20037;-41
2022/01/04 02:18:17;;;;;;;25.58;14.55;;;;;;;;;;4993529;28;20030;-39
2022/01/04 02:20:43;;;;;;;28.33;15.20;;;;;;;;;;4993617;28;20022;-39
2022/01/04 02:23:08;;;;;;;25.48;14.18;;;;;;;;;;4993175;28;20061;-40
2022/01/04 02:25:34;;;;;;;27.05;14.05;;;;;;;;;;4993483;28;20019;-39
2022/01/04 02:28:00;;;;;;;29.08;15.52;;;;;;;;;;4993493;28;20038;-39
2022/01/04 02:30:25;;;;;;;25.80;14.60;;;;;;;;;;4993438;28;20423;-38
2022/01/04 02:32:51;;;;;;;22.15;12.13;;;;;;;;;;4993215;28;20027;-39
2022/01/04 02:35:19;;;;;;;27.45;14.85;;;;;;;;;;4993293;28;20030;-39
2022/01/04 02:37:44;;;;;;;26.63;14.52;;;;;;;;;;4993988;28;20033;-39
2022/01/04 02:40:10;;;;;;;20.80;13.30;;;;;;;;;;4997078;28;20073;-39
2022/01/04 02:42:36;;;;;;;25.35;13.55;;;;;;;;;;4997031;28;20033;-39
2022/01/04 02:45:03;;;;;;;22.80;13.52;;;;;;;;;;4997012;28;20018;-38
2022/01/04 02:47:29;;;;;;;25.98;13.90;;;;;;;;;;4996930;28;20069;-39
2022/01/04 02:49:56;;;;;;;23.90;13.00;;;;;;;;;;4996975;28;20057;-39
2022/01/04 02:52:22;;;;;;;23.92;12.85;;;;;;;;;;4996700;28;20126;-39
2022/01/04 02:54:47;;;;;;;26.10;12.52;;;;;;;;;;4996783;28;20113;-39
2022/01/04 02:57:13;;;;;;;19.10;12.18;;;;;;;;;;4996856;28;20046;-39
2022/01/04 02:59:38;;;;;;;23.00;13.23;;;;;;;;;;4997042;28;20026;-39
2022/01/04 03:02:04;;;;;;;23.95;13.63;;;;;;;;;;4996701;28;20089;-39
2022/01/04 03:04:30;;;;;;;21.17;12.90;;;;;;;;;;4996968;28;20031;-41
2022/01/04 03:06:56;;;;;;;24.55;12.48;;;;;;;;;;4996917;28;20031;-36
2022/01/04 03:09:21;;;;;;;23.08;12.70;;;;;;;;;;4995433;28;20386;-39
2022/01/04 03:11:47;;;;;;;21.00;12.38;;;;;;;;;;4996631;28;20030;-39
2022/01/04 03:14:13;;;;;;;23.80;13.25;;;;;;;;;;4996795;28;20530;-39
2022/01/04 03:16:38;;;;;;;24.10;13.55;;;;;;;;;;4996723;28;20061;-39
2022/01/04 03:19:06;;;;;;;19.42;12.13;;;;;;;;;;4996678;28;20430;-39
2022/01/04 03:21:36;;;;;;;24.67;14.38;;;;;;;;;;4996635;28;20026;-38
2022/01/04 03:24:03;;;;;;;22.15;13.27;;;;;;;;;;4996403;28;20022;-40
2022/01/04 03:26:29;;;;;;;21.80;12.63;;;;;;;;;;4996304;28;20038;-39
2022/01/04 03:28:54;;;;;;;20.73;12.90;;;;;;;;;;4996299;28;20033;-40
2022/01/04 03:31:20;;;;;;;22.02;12.27;;;;;;;;;;4996194;28;20030;-38
2022/01/04 03:33:46;;;;;;;22.67;12.40;;;;;;;;;;4996082;28;20058;-38
2022/01/04 03:36:12;;;;;;;20.55;12.55;;;;;;;;;;4996348;28;20038;-39
2022/01/04 03:38:37;;;;;;;20.80;11.95;;;;;;;;;;4996390;28;20026;-39
2022/01/04 03:41:03;;;;;;;19.70;12.15;;;;;;;;;;4996028;28;20092;-39
2022/01/04 03:43:29;;;;;;;23.13;13.10;;;;;;;;;;4996425;28;20113;-37
2022/01/04 03:45:55;;;;;;;21.23;11.95;;;;;;;;;;4996429;28;20153;-39
2022/01/04 03:48:20;;;;;;;21.63;11.85;;;;;;;;;;4996115;28;20487;-39
2022/01/04 03:50:46;;;;;;;22.85;12.00;;;;;;;;;;4994851;28;20027;-37
2022/01/04 03:53:11;;;;;;;19.73;11.88;;;;;;;;;;4995835;28;20049;-41
2022/01/04 03:55:37;;;;;;;19.70;11.07;;;;;;;;;;4996199;28;20022;-37
2022/01/04 03:58:02;;;;;;;19.05;10.63;;;;;;;;;;4995091;28;20108;-39
2022/01/04 04:00:28;;;;;;;18.35;11.43;;;;;;;;;;4996166;28;20037;-39
2022/01/04 04:02:53;;;;;;;20.25;10.55;;;;;;;;;;4995898;28;20030;-37
2022/01/04 04:05:19;;;;;;;18.80;10.80;;;;;;;;;;4996086;28;20027;-37
2022/01/04 04:07:44;;;;;;;17.58;10.35;;;;;;;;;;4996000;28;20030;-35
2022/01/04 04:10:10;;;;;;;18.35;10.82;;;;;;;;;;4995991;28;20053;-35
2022/01/04 04:12:37;;;;;;;15.80;9.75;;;;;;;;;;4995864;28;20474;-35
2022/01/04 04:15:07;;;;;;;17.80;9.68;;;;;;;;;;4995744;28;20022;-35
2022/01/04 04:17:33;;;;;;;;;;;;;;;;;;4995791;28;20037;-36
2022/01/04 04:19:58;;;;;;;16.92;8.93;;;;;;;;;;4995716;28;19913;-36
2022/01/04 04:22:24;;;;;;;14.48;9.13;;;;;;;;;;4995655;28;20438;-37
2022/01/04 04:24:49;;;;;;;16.83;9.48;;;;;;;;;;4995659;28;20065;-36
2022/01/04 04:27:15;;;;;;;17.42;9.40;;;;;;;;;;4995515;28;20524;-37
2022/01/04 04:29:40;;;;;;;18.65;9.48;;;;;;;;;;4995545;28;20030;-37
2022/01/04 04:32:07;;;;;;;15.15;8.88;;;;;;;;;;4995444;28;20027;-35
2022/01/04 04:34:33;;;;;;;13.90;8.27;;;;;;;;;;4995026;28;20023;-35
2022/01/04 04:36:58;;;;;;;14.57;8.00;;;;;;;;;;4995107;28;20030;-35
2022/01/04 04:39:24;;;;;;;12.70;7.50;;;;;;;;;;4994948;28;20038;-35
2022/01/04 04:41:49;;;;;;;12.10;7.45;;;;;;;;;;4994952;28;20034;-38
2022/01/04 04:44:16;;;;;;;12.45;7.30;;;;;;;;;;4995008;28;20077;-36
2022/01/04 04:46:42;;;;;;;10.30;6.53;;;;;;;;;;4995152;28;20449;-37
2022/01/04 04:49:07;;;;;;;13.07;7.18;;;;;;;;;;4995044;28;20030;-36
2022/01/04 04:51:33;;;;;;;13.18;7.57;;;;;;;;;;4995087;28;20046;-36
2022/01/04 04:53:59;;;;;;;12.55;7.95;;;;;;;;;;4994534;28;20046;-36
2022/01/04 04:56:24;;;;;;;13.93;8.38;;;;;;;;;;4994584;28;20126;-36
2022/01/04 04:58:50;;;;;;;12.80;6.70;;;;;;;;;;4994916;28;20018;-37
2022/01/04 05:01:15;;;;;;;15.48;9.15;;;;;;;;;;4994040;28;20026;-37
2022/01/04 05:03:41;;;;;;;16.45;9.13;;;;;;;;;;4994755;28;20031;-36
2022/01/04 05:06:06;;;;;;;14.90;8.70;;;;;;;;;;4994359;28;20053;-36
2022/01/04 05:08:32;;;;;;;12.35;7.20;;;;;;;;;;4994410;28;20030;-37
2022/01/04 05:10:57;;;;;;;13.73;8.73;;;;;;;;;;4994529;28;20057;-36
2022/01/04 05:13:23;;;;;;;14.90;8.40;;;;;;;;;;4993398;28;20492;-36
2022/01/04 05:15:49;;;;;;;13.45;8.25;;;;;;;;;;4994110;28;20495;-38
2022/01/04 05:18:15;;;;;;;14.15;9.13;;;;;;;;;;4994538;28;20038;-38
2022/01/04 05:20:41;;;;;;;15.65;9.45;;;;;;;;;;4994155;28;20030;-36
2022/01/04 05:23:06;;;;;;;16.00;9.38;;;;;;;;;;4994337;28;20092;-40
2022/01/04 05:25:32;;;;;;;19.40;9.43;;;;;;;;;;4994311;28;20034;-37
2022/01/04 05:27:58;;;;;;;19.25;10.82;;;;;;;;;;4994309;28;20081;-38
2022/01/04 05:30:23;;;;;;;16.13;10.23;;;;;;;;;;4993988;28;20026;-36
2022/01/04 05:32:48;;;;;;;23.63;12.38;;;;;;;;;;4993920;28;20027;-37
2022/01/04 05:35:14;;;;;;;17.83;10.75;;;;;;;;;;4993775;28;20466;-38
2022/01/04 05:37:39;;;;;;;19.55;11.40;;;;;;;;;;4993696;28;20085;-36
2022/01/04 05:40:05;;;;;;;20.00;11.88;;;;;;;;;;4993970;28;20034;-39
2022/01/04 05:42:31;;;;;;;21.05;11.80;;;;;;;;;;4993989;28;20065;-38
2022/01/04 05:44:56;;;;;;;23.60;13.02;;;;;;;;;;4993950;28;20022;-37
2022/01/04 05:47:24;;;;;;;22.33;13.10;;;;;;;;;;4993921;28;20037;-36
2022/01/04 05:49:50;;;;;;;26.50;12.88;;;;;;;;;;4994026;28;20018;-36
2022/01/04 05:52:16;;;;;;;19.50;10.63;;;;;;;;;;4993573;28;20054;-37
2022/01/04 05:54:43;;;;;;;24.40;14.55;;;;;;;;;;4993628;28;20022;-37
2022/01/04 05:57:09;;;;;;;22.83;13.55;;;;;;;;;;4993782;28;20049;-36
2022/01/04 05:59:34;;;;;;;29.65;15.88;;;;;;;;;;4993483;28;20030;-36
2022/01/04 06:02:01;;;;;;;25.38;14.55;;;;;;;;;;4993521;28;20031;-37
2022/01/04 06:04:26;;;;;;;27.15;15.93;;;;;;;;;;4993706;28;20028;-36
2022/01/04 06:06:52;;;;;;;25.58;14.80;;;;;;;;;;4993555;28;20514;-37
2022/01/04 06:09:30;;;;;;;30.65;17.42;;;;;;;;;;4993518;28;20105;-36
2022/01/04 06:11:59;;;;;;;26.50;15.77;;;;;;;;;;4993297;28;20034;-36
2022/01/04 06:17:11;;;;;;;29.30;17.05;;;;;;;;;;4993452;28;20497;-36
2022/01/04 06:19:38;;;;;;;27.17;15.98;;;;;;;;;;4992992;28;20034;-37
2022/01/04 06:22:04;;;;;;;33.65;18.13;;;;;;;;;;4993413;28;20030;-38
2022/01/04 06:24:29;;;;;;;32.15;17.00;;;;;;;;;;4993031;28;20033;-36
2022/01/04 06:26:55;;;;;;;33.85;17.63;;;;;;;;;;4993113;28;20034;-37
2022/01/04 06:29:24;;;;;;;27.35;16.45;;;;;;;;;;4993057;28;20110;-37
2022/01/04 06:31:49;;;;;;;30.73;16.40;;;;;;;;;;4993461;28;20029;-37
2022/01/04 06:34:15;;;;;;;29.17;16.27;;;;;;;;;;4993132;28;20018;-36
2022/01/04 06:36:40;;;;;;;29.23;15.30;;;;;;;;;;4993039;28;20034;-37
2022/01/04 06:39:06;;;;;;;32.45;18.27;;;;;;;;;;4993075;28;20069;-38
2022/01/04 06:41:32;;;;;;;30.67;17.90;;;;;;;;;;4992851;28;20069;-36
2022/01/04 06:43:57;;;;;;;30.90;17.17;;;;;;;;;;4993603;28;20045;-39
2022/01/04 06:46:25;;;;;;;36.30;18.90;;;;;;;;;;4993575;28;20030;-37
2022/01/04 06:48:51;;;;;;;28.45;17.52;;;;;;;;;;4993290;28;20084;-36
2022/01/04 06:51:16;;;;;;;32.83;19.67;;;;;;;;;;4993532;28;20034;-37
2022/01/04 06:53:41;;;;;;;29.45;17.30;;;;;;;;;;4993049;28;20068;-37
2022/01/04 06:56:07;;;;;;;24.73;15.65;;;;;;;;;;4991749;28;20026;-38
2022/01/04 06:58:32;;;;;;;25.95;16.50;;;;;;;;;;4993135;28;20095;-37
2022/01/04 07:00:58;;;;;;;33.75;17.75;;;;;;;;;;4992786;28;20128;-37
2022/01/04 07:03:24;;;;;;;27.30;16.95;;;;;;;;;;4992709;28;20030;-37
2022/01/04 07:05:49;;;;;;;26.02;15.68;;;;;;;;;;4993036;28;20053;-36
2022/01/04 07:08:15;;;;;;;26.35;17.15;;;;;;;;;;4992710;28;20022;-36
2022/01/04 07:10:40;;;;;;;29.98;16.52;;;;;;;;;;4992846;28;20042;-36
2022/01/04 07:13:06;;;;;;;25.15;15.68;;;;;;;;;;4992264;28;20097;-36
2022/01/04 07:15:31;;;;;;;27.20;17.52;;;;;;;;;;4992567;28;20113;-36
2022/01/04 07:17:57;;;;;;;25.92;16.73;;;;;;;;;;4992578;28;20041;-36
2022/01/04 07:20:22;;;;;;;29.90;16.52;;;;;;;;;;4992626;28;20030;-37
2022/01/04 07:22:47;;;;;;;24.05;14.32;;;;;;;;;;4992889;28;20121;-36
2022/01/04 07:25:13;;;;;;;25.50;15.40;;;;;;;;;;4995563;28;20030;-37
2022/01/04 07:27:38;;;;;;;17.35;10.52;;;;;;;;;;4996070;28;20115;-36
2022/01/04 07:30:04;;;;;;;25.15;14.27;;;;;;;;;;4996477;28;20088;-36
2022/01/04 07:32:30;;;;;;;24.25;14.27;;;;;;;;;;4996213;28;20019;-36
2022/01/04 07:34:56;;;;;;;24.30;13.93;;;;;;;;;;4996160;28;20045;-36
2022/01/04 07:37:22;;;;;;;21.23;12.00;;;;;;;;;;4995694;28;20042;-36
2022/01/04 07:39:48;;;;;;;16.80;9.25;;;;;;;;;;4996000;28;20030;-36
2022/01/04 07:42:14;;;;;;;17.00;11.18;;;;;;;;;;4996082;28;20022;-35
2022/01/04 07:44:39;;;;;;;22.13;12.00;;;;;;;;;;4996216;28;20027;-35
2022/01/04 07:47:05;;;;;;;22.88;13.82;;;;;;;;;;4995803;28;20386;-36
2022/01/04 07:49:31;;;;;;;14.48;9.20;;;;;;;;;;4994460;28;20026;-37
2022/01/04 07:51:56;;;;;;;19.65;11.85;;;;;;;;;;4995620;28;20058;-36
2022/01/04 07:54:22;;;;;;;29.73;18.13;;;;;;;;;;4995627;28;20022;-38
2022/01/04 07:56:47;;;;;;;18.55;11.23;;;;;;;;;;4995844;28;20058;-37
2022/01/04 07:59:14;;;;;;;17.05;10.45;;;;;;;;;;4995309;28;20034;-38
2022/01/04 08:01:40;;;;;;;19.65;12.05;;;;;;;;;;4995284;28;20097;-37
2022/01/04 08:04:06;;;;;;;23.48;11.52;;;;;;;;;;4995423;28;20109;-36
2022/01/04 08:06:31;;;;;;;12.15;7.57;;;;;;;;;;4996030;28;20023;-37
2022/01/04 08:08:57;;;;;;;12.05;7.57;;;;;;;;;;4996103;28;20026;-39
2022/01/04 08:11:23;;;;;;;10.88;5.82;;;;;;;;;;4995912;28;20026;-38
2022/01/04 08:13:48;;;;;;;12.98;8.35;;;;;;;;;;4996051;28;20030;-36
2022/01/04 08:16:15;;;;;;;7.35;5.18;;;;;;;;;;4996143;28;20084;-37
2022/01/04 08:18:44;;;;;;;10.75;7.10;;;;;;;;;;4996333;28;20039;-37
2022/01/04 08:21:09;;;;;;;14.25;7.20;;;;;;;;;;4995989;28;20041;-38
2022/01/04 08:23:37;;;;;;;9.90;6.20;;;;;;;;;;4995501;28;20023;-37
2022/01/04 08:26:03;;;;;;;9.48;6.07;;;;;;;;;;4995857;28;20520;-37
2022/01/04 08:28:29;;;;;;;11.80;5.72;;;;;;;;;;4995716;28;20030;-37
2022/01/04 08:30:55;;;;;;;7.70;5.53;;;;;;;;;;4995634;28;20030;-36
2022/01/04 08:33:20;;;;;;;8.52;6.10;;;;;;;;;;4995778;28;20077;-38
2022/01/04 08:35:46;;;;;;;16.15;8.10;;;;;;;;;;4994619;28;20110;-36
2022/01/04 08:38:11;;;;;;;14.65;7.05;;;;;;;;;;4995515;28;20065;-36
2022/01/04 08:40:37;;;;;;;14.75;7.25;;;;;;;;;;4995738;28;20022;-36
2022/01/04 08:43:03;;;;;;;21.35;9.65;;;;;;;;;;4995632;28;20036;-36
2022/01/04 08:45:28;;;;;;;17.30;8.27;;;;;;;;;;4995272;28;20085;-36
2022/01/04 08:47:54;;;;;;;10.90;6.30;;;;;;;;;;4995267;28;20031;-36
2022/01/04 08:50:21;;;;;;;9.95;6.88;;;;;;;;;;4995492;28;20037;-37
2022/01/04 08:52:51;;;;;;;10.48;6.05;;;;;;;;;;4995025;28;20053;-37
2022/01/04 08:55:16;;;;;;;11.88;6.75;;;;;;;;;;4995468;28;20442;-36
2022/01/04 08:57:42;;;;;;;11.82;7.65;;;;;;;;;;4995222;28;20109;-38
2022/01/04 09:00:10;;;;;;;12.15;7.50;;;;;;;;;;4995009;28;20134;-36
2022/01/04 09:02:36;;;;;;;12.20;8.27;;;;;;;;;;4994953;28;20174;-36
2022/01/04 09:05:02;;;;;;;15.15;7.60;;;;;;;;;;4994890;28;20055;-37
2022/01/04 09:07:28;;;;;;;10.55;6.63;;;;;;;;;;4994845;28;20061;-37
2022/01/04 09:09:54;;;;;;;30.15;9.93;;;;;;;;;;4994754;28;20058;-37
2022/01/04 09:12:22;;;;;;;9.68;5.95;;;;;;;;;;4995015;28;20056;-38
2022/01/04 09:15:05;;;;;;;15.80;7.97;;;;;;;;;;4995196;28;20372;-38
2022/01/04 09:20:15;;;;;;;14.50;8.50;;;;;;;;;;4994621;28;20469;-38
2022/01/04 09:22:43;;;;;;;13.65;7.85;;;;;;;;;;4994831;28;20031;-36
2022/01/04 09:25:09;;;;;;;12.27;7.55;;;;;;;;;;4994671;28;20092;-36
2022/01/04 09:27:36;;;;;;;12.75;8.07;;;;;;;;;;4994763;28;20034;-38
2022/01/04 09:30:04;;;;;;;11.77;7.90;;;;;;;;;;4994688;28;20452;-35
2022/01/04 09:32:32;;;;;;;11.73;7.15;;;;;;;;;;4994699;28;20494;-36
2022/01/04 09:34:59;;;;;;;13.35;8.55;;;;;;;;;;4992952;28;20115;-35
2022/01/04 09:37:25;;;;;;;10.23;7.07;;;;;;;;;;4992327;28;20035;-35
2022/01/04 09:39:51;;;;;;;10.68;6.97;;;;;;;;;;4992928;28;20081;-37
2022/01/04 09:42:19;;;;;;;11.15;7.30;;;;;;;;;;4992843;28;20018;-35
2022/01/04 09:44:45;;;;;;;11.13;6.97;;;;;;;;;;4992663;28;20026;-38
2022/01/04 09:47:10;;;;;;;12.00;7.82;;;;;;;;;;4992183;28;20481;-37
2022/01/04 09:49:36;;;;;;;9.23;6.95;;;;;;;;;;4992089;28;20066;-36
2022/01/04 09:52:04;;;;;;;10.90;7.35;;;;;;;;;;4992467;28;20043;-36
2022/01/04 09:54:31;;;;;;;25.02;10.25;;;;;;;;;;4994051;28;20539;-36
2022/01/04 09:56:57;;;;;;;9.35;6.70;;;;;;;;;;4993755;28;20049;-39
2022/01/04 09:59:22;;;;;;;19.50;7.95;;;;;;;;;;4993916;28;20026;-36
2022/01/04 10:01:59;;;;;;;15.70;9.30;;;;;;;;;;4993487;28;20019;-39
2022/01/04 10:04:26;;;;;;;12.27;8.07;;;;;;;;;;4993397;28;20113;-37
2022/01/04 10:07:07;;;;;;;11.63;8.02;;;;;;;;;;4993765;28;20516;-37
2022/01/04 10:09:37;;;;;;;15.95;7.38;;;;;;;;;;4993319;28;20054;-36
2022/01/04 10:12:05;;;;;;;13.80;7.70;;;;;;;;;;4993607;28;20363;-36
2022/01/04 10:14:35;;;;;;;9.48;5.70;;;;;;;;;;4993233;28;20070;-37
2022/01/04 10:17:14;;;;;;;13.30;8.98;;;;;;;;;;4993242;28;20080;-36
2022/01/04 10:19:46;;;;;;;11.82;7.95;;;;;;;;;;4993686;28;20038;-37
2022/01/04 10:22:14;;;;;;;15.18;8.20;;;;;;;;;;4992777;28;20049;-39
2022/01/04 10:24:40;;;;;;;14.23;8.23;;;;;;;;;;4993315;28;20399;-39
2022/01/04 10:27:32;;;;;;;17.05;11.07;;;;;;;;;;4992677;28;20025;-40
2022/01/04 10:30:28;;;;;;;16.60;9.35;;;;;;;;;;4988558;28;20355;-38
2022/01/04 10:32:57;;;;;;;10.02;7.72;;;;;;;;;;4992081;28;20077;-36
2022/01/04 10:35:23;;;;;;;12.10;7.32;;;;;;;;;;4992377;28;20023;-37
2022/01/04 10:37:48;;;;;;;15.15;8.40;;;;;;;;;;4992405;28;20037;-36
2022/01/04 10:40:14;;;;;;;13.27;8.50;;;;;;;;;;4992514;28;20034;-37
2022/01/04 10:42:39;;;;;;;12.00;7.90;;;;;;;;;;4992908;28;20113;-37
2022/01/04 10:45:42;;;;;;;10.68;7.60;;;;;;;;;;4991915;28;20467;-37
2022/01/04 10:48:11;;;;;;;16.92;8.23;;;;;;;;;;4950667;29;20036;-37
2022/01/04 10:50:37;;;;;;;13.43;8.73;;;;;;;;;;4984649;28;20440;-38
2022/01/04 10:53:04;;;;;;;12.20;7.20;;;;;;;;;;4991659;28;20053;-39
2022/01/04 10:55:32;;;;;;;15.35;9.13;;;;;;;;;;4991471;28;20022;-37
2022/01/04 10:57:57;;;;;;;12.55;9.25;;;;;;;;;;4983520;28;20038;-36
2022/01/04 11:00:24;;;;;;;12.00;8.20;;;;;;;;;;4993960;28;20022;-38
2022/01/04 11:02:49;;;;;;;16.27;9.52;;;;;;;;;;4996717;28;20548;-36
2022/01/04 11:05:20;;;;;;;13.90;8.73;;;;;;;;;;4996650;28;20153;-37
2022/01/04 11:07:58;;;;;;;12.27;8.45;;;;;;;;;;4996951;28;20030;-40
2022/01/04 11:10:27;;;;;;;12.25;7.82;;;;;;;;;;4996547;28;20409;-36
2022/01/04 11:12:55;;;;;;;9.45;6.57;;;;;;;;;;4996721;28;20100;-38
2022/01/04 11:15:21;;;;;;;11.65;7.60;;;;;;;;;;4996425;28;20426;-37
2022/01/04 11:17:47;;;;;;;11.10;6.60;;;;;;;;;;4995324;28;20037;-39
2022/01/04 11:20:12;;;;;;;10.68;7.15;;;;;;;;;;4994731;28;20479;-39
2022/01/04 11:22:40;;;;;;;14.75;8.82;;;;;;;;;;4994875;28;20026;-36
2022/01/04 11:25:07;;;;;;;8.52;6.05;;;;;;;;;;4994960;28;20113;-36
2022/01/04 11:27:36;;;;;;;14.70;7.93;;;;;;;;;;4994685;28;20038;-36
2022/01/04 11:30:06;;;;;;;12.98;8.30;;;;;;;;;;4994998;28;20097;-37
2022/01/04 11:32:33;;;;;;;13.60;8.60;;;;;;;;;;4994850;28;20030;-37
2022/01/04 11:35:07;;;;;;;9.50;6.22;;;;;;;;;;4995117;28;20371;-39
2022/01/04 11:37:32;;;;;;;13.50;8.52;;;;;;;;;;4994500;28;20038;-38
2022/01/04 11:39:58;;;;;;;13.38;7.97;;;;;;;;;;4994131;28;20026;-37
2022/01/04 11:42:37;;;;;;;11.75;7.03;;;;;;;;;;4994917;28;20061;-36
2022/01/04 11:45:08;;;;;;;12.90;7.70;;;;;;;;;;4995284;28;20433;-38
2022/01/04 11:47:35;;;;;;;14.63;7.50;;;;;;;;;;4995090;28;20033;-39
2022/01/04 11:50:10;;;;;;;13.55;8.13;;;;;;;;;;4995237;28;20034;-36
2022/01/04 11:52:39;;;;;;;17.02;9.45;;;;;;;;;;4994442;28;20522;-36
2022/01/04 11:55:37;;;;;;;14.13;8.40;;;;;;;;;;4993367;28;20030;-36
2022/01/04 11:58:13;;;;;;;10.15;6.10;;;;;;;;;;4971612;28;20608;-35
2022/01/04 12:00:43;;;;;;;12.75;7.35;;;;;;;;;;4994707;28;20097;-36
2022/01/04 12:03:15;;;;;;;11.15;6.80;;;;;;;;;;4995063;28;20612;-38
2022/01/04 12:06:02;;;;;;;10.27;6.25;;;;;;;;;;4994440;28;20043;-39
2022/01/04 12:08:36;;;;;;;12.73;7.40;;;;;;;;;;4994582;28;20026;-39
2022/01/04 12:11:02;;;;;;;13.35;7.18;;;;;;;;;;4994453;28;20038;-38
2022/01/04 12:13:49;;;;;;;15.73;7.80;;;;;;;;;;4994297;28;20025;-38
2022/01/04 12:16:28;;;;;;;16.23;7.85;;;;;;;;;;4994234;28;20041;-38
2022/01/04 12:18:57;;;;;;;11.25;7.22;;;;;;;;;;4994066;28;20553;-38
2022/01/04 12:21:26;;;;;;;13.45;8.25;;;;;;;;;;4993919;28;20066;-40
2022/01/04 12:23:52;;;;;;;12.50;8.03;;;;;;;;;;4994046;28;20565;-40
2022/01/04 12:26:17;;;;;;;15.02;7.13;;;;;;;;;;4993814;28;20034;-39
2022/01/04 12:28:46;;;;;;;16.90;8.07;;;;;;;;;;4994033;28;20121;-40
2022/01/04 12:31:17;;;;;;;11.00;5.70;;;;;;;;;;4993866;28;20073;-40
2022/01/04 12:33:45;;;;;;;13.18;6.88;;;;;;;;;;4994119;28;20084;-39
2022/01/04 12:36:27;;;;;;;11.00;6.78;;;;;;;;;;4993383;28;20084;-37
2022/01/04 12:38:54;;;;;;;7.75;5.25;;;;;;;;;;4993468;28;20541;-37
2022/01/04 12:41:20;;;;;;;8.65;5.68;;;;;;;;;;4991871;28;20042;-34
2022/01/04 12:43:47;;;;;;;10.82;6.40;;;;;;;;;;4992273;28;20065;-37
2022/01/04 12:46:14;;;;;;;8.88;5.88;;;;;;;;;;4993366;28;20037;-39
2022/01/04 12:48:44;;;;;;;12.25;6.15;;;;;;;;;;4993259;28;20494;-40
2022/01/04 12:51:31;;;;;;;8.75;5.53;;;;;;;;;;4993428;28;20467;-42
2022/01/04 12:53:59;;;;;;;14.07;6.82;;;;;;;;;;4992794;28;20517;-35
2022/01/04 12:56:26;;;;;;;10.48;6.60;;;;;;;;;;4993052;28;20031;-37
2022/01/04 12:58:52;;;;;;;12.70;6.57;;;;;;;;;;4993504;28;20374;-40
2022/01/04 13:01:29;;;;;;;9.93;6.95;;;;;;;;;;4993351;28;20030;-38
2022/01/04 13:03:56;;;;;;;12.63;7.22;;;;;;;;;;4993243;28;20746;-37
2022/01/04 13:06:23;;;;;;;8.50;6.55;;;;;;;;;;4992967;28;20032;-41
2022/01/04 13:08:52;;;;;;;10.93;6.70;;;;;;;;;;4992920;28;20026;-42
2022/01/04 13:11:19;;;;;;;12.25;6.57;;;;;;;;;;4992840;28;20093;-37
2022/01/04 13:14:06;;;;;;;12.57;6.97;;;;;;;;;;4992788;28;20034;-42
2022/01/04 13:16:34;;;;;;;7.35;5.30;;;;;;;;;;4993123;28;20033;-38
2022/01/04 13:19:13;;;;;;;10.68;6.10;;;;;;;;;;4993022;28;20034;-38
2022/01/04 13:21:39;;;;;;;14.25;7.03;;;;;;;;;;4992158;28;20030;-39
2022/01/04 13:24:05;;;;;;;11.15;6.90;;;;;;;;;;4993109;28;20030;-39
2022/01/04 13:26:30;;;;;;;10.63;6.80;;;;;;;;;;4992619;28;20022;-37
2022/01/04 13:28:58;;;;;;;10.27;6.43;;;;;;;;;;4992807;28;20092;-39
2022/01/04 13:31:24;;;;;;;10.98;6.38;;;;;;;;;;4992743;28;20109;-37
2022/01/04 13:33:50;;;;;;;11.88;6.85;;;;;;;;;;4992852;28;20434;-42
2022/01/04 13:36:16;;;;;;;8.73;5.75;;;;;;;;;;4992380;28;20173;-41
2022/01/04 13:38:42;;;;;;;11.50;5.95;;;;;;;;;;4991159;28;20081;-42
2022/01/04 13:41:08;;;;;;;8.55;5.60;;;;;;;;;;4992282;28;20034;-42
2022/01/04 13:43:46;;;;;;;12.52;4.97;;;;;;;;;;4992454;28;20077;-40
2022/01/04 13:46:13;;;;;;;9.55;5.10;;;;;;;;;;4992340;28;20061;-42
2022/01/04 13:48:43;;;;;;;9.35;6.38;;;;;;;;;;4992395;28;20166;-44
2022/01/04 13:51:10;;;;;;;10.02;6.93;;;;;;;;;;4992186;28;20038;-41
2022/01/04 13:53:38;;;;;;;9.18;6.28;;;;;;;;;;4992116;28;20057;-43
2022/01/04 13:56:08;;;;;;;9.80;6.35;;;;;;;;;;4991970;28;20097;-40
2022/01/04 13:58:47;;;;;;;;;;;;;;;;;;4992415;28;20038;-45
2022/01/04 14:01:18;;;;;;;9.43;6.45;;;;;;;;;;4992016;28;19917;-44
2022/01/04 14:03:49;;;;;;;8.20;5.60;;;;;;;;;;4992184;28;20038;-40
2022/01/04 14:06:32;;;;;;;8.95;5.75;;;;;;;;;;4991831;28;20486;-42
2022/01/04 14:08:58;;;;;;;10.18;5.78;;;;;;;;;;4992046;28;20058;-41
2022/01/04 14:11:28;;;;;;;10.73;6.00;;;;;;;;;;4990471;28;20030;-42
2022/01/04 14:13:55;;;;;;;11.20;5.47;;;;;;;;;;4991708;28;20172;-43
2022/01/04 14:16:22;;;;;;;9.32;5.85;;;;;;;;;;4991754;28;20387;-44
2022/01/04 14:19:20;;;;;;;9.88;5.55;;;;;;;;;;4991906;28;20493;-41
2022/01/04 14:21:56;;;;;;;9.30;5.90;;;;;;;;;;4991770;28;20554;-43
2022/01/04 14:24:41;;;;;;;8.95;6.15;;;;;;;;;;4991799;28;20037;-38
2022/01/04 14:27:20;;;;;;;8.55;6.00;;;;;;;;;;4991554;28;20037;-41
2022/01/04 14:29:51;;;;;;;11.80;6.13;;;;;;;;;;4991527;28;20034;-38
2022/01/04 14:32:16;;;;;;;7.97;6.13;;;;;;;;;;4990201;28;20034;-38
2022/01/04 14:34:42;;;;;;;16.23;7.30;;;;;;;;;;4990431;28;20130;-39
2022/01/04 14:37:07;;;;;;;14.27;6.75;;;;;;;;;;4990040;28;20042;-38
2022/01/04 14:39:33;;;;;;;11.00;7.32;;;;;;;;;;4991217;28;20026;-37